Аэропорт: Витебск Восточный. Витебск

ICAO: UMII

METAR:
2019-11-21 09:00:00
UMII 210900Z 13007G11MPS 9999 BKN029 01/M02 Q1038 R05/190065 NOSIG
METAR:
2019-11-21 08:02:00
TAF COR UMII 210802Z 2109/2118 14007G12MPS 6000 BKN007 TX00/2109Z TNM02/2115Z TEMPO 2109/2111 2000 SNRA BR BKN005 TEMPO 2111/2118 3000 -SHSN BLSN BKN005 BKN010CB